createdAt,value
2017-09-05T00:00:17.536Z,18.10
2017-09-05T00:02:44.985Z,18.00
2017-09-05T00:05:12.417Z,17.90
2017-09-05T00:10:49.247Z,18.00
2017-09-05T00:13:16.675Z,17.90
2017-09-05T00:18:51.008Z,18.10
2017-09-05T00:21:18.864Z,18.10
2017-09-05T00:23:46.296Z,18.20
2017-09-05T00:26:13.762Z,18.10
2017-09-05T00:28:41.181Z,18.10
2017-09-05T00:31:08.614Z,18.00
2017-09-05T00:33:36.048Z,18.00
2017-09-05T00:36:03.498Z,18.00
2017-09-05T00:38:30.941Z,17.90
2017-09-05T00:40:58.381Z,17.90
2017-09-05T00:43:25.814Z,17.90
2017-09-05T00:45:53.247Z,17.90
2017-09-05T00:48:20.681Z,17.90
2017-09-05T00:50:48.113Z,17.90
2017-09-05T00:53:15.552Z,17.80
2017-09-05T00:55:42.972Z,17.70
2017-09-05T00:58:10.409Z,17.80
2017-09-05T01:00:37.836Z,17.80
2017-09-05T01:03:05.264Z,17.70
2017-09-05T01:05:32.702Z,17.70
2017-09-05T01:08:00.128Z,17.70
2017-09-05T01:10:27.561Z,17.70
2017-09-05T01:12:54.996Z,17.70
2017-09-05T01:15:22.422Z,17.60
2017-09-05T01:17:49.870Z,17.60
2017-09-05T01:20:17.294Z,17.60
2017-09-05T01:22:44.724Z,17.60
2017-09-05T01:25:12.157Z,17.60
2017-09-05T01:27:39.580Z,17.50
2017-09-05T01:30:07.020Z,17.40
2017-09-05T01:32:34.451Z,17.30
2017-09-05T01:35:05.560Z,17.20
2017-09-05T01:37:32.991Z,17.20
2017-09-05T01:40:09.316Z,17.20
2017-09-05T01:42:36.743Z,17.30
2017-09-05T01:45:04.177Z,17.10
2017-09-05T01:47:31.609Z,17.10
2017-09-05T01:49:59.044Z,17.10
2017-09-05T01:52:26.484Z,17.10
2017-09-05T01:54:53.916Z,17.00
2017-09-05T01:57:21.356Z,17.10
2017-09-05T01:59:48.791Z,17.00
2017-09-05T02:02:16.224Z,17.10
2017-09-05T02:04:43.664Z,17.10
2017-09-05T02:07:11.098Z,17.10
2017-09-05T02:09:38.534Z,17.20
2017-09-05T02:12:06.004Z,17.10
2017-09-05T02:14:33.451Z,17.10
2017-09-05T02:17:00.875Z,17.00
2017-09-05T02:19:28.371Z,17.10
2017-09-05T02:21:55.800Z,17.10
2017-09-05T02:24:23.229Z,17.10
2017-09-05T02:26:50.661Z,17.10
2017-09-05T02:29:18.091Z,17.10
2017-09-05T02:31:45.527Z,17.10
2017-09-05T02:34:12.946Z,17.10
2017-09-05T02:36:40.376Z,17.10
2017-09-05T02:39:07.802Z,17.10
2017-09-05T02:41:35.226Z,17.10
2017-09-05T02:44:02.663Z,17.10
2017-09-05T02:46:30.098Z,17.10
2017-09-05T02:48:57.533Z,17.10
2017-09-05T02:51:24.965Z,17.00
2017-09-05T02:53:52.389Z,17.10
2017-09-05T02:56:19.840Z,17.10
2017-09-05T02:58:47.263Z,17.10
2017-09-05T03:01:14.705Z,17.00
2017-09-05T03:03:42.142Z,17.00
2017-09-05T03:06:09.576Z,17.00
2017-09-05T03:08:37.001Z,17.00
2017-09-05T03:11:04.448Z,17.00
2017-09-05T03:13:31.894Z,17.10
2017-09-05T03:15:59.319Z,17.00
2017-09-05T03:18:26.755Z,17.00
2017-09-05T03:20:54.187Z,17.00
2017-09-05T03:23:21.629Z,17.00
2017-09-05T03:25:49.053Z,17.10
2017-09-05T03:28:16.475Z,17.10
2017-09-05T03:30:43.901Z,17.00
2017-09-05T03:33:11.341Z,17.00
2017-09-05T03:35:38.774Z,17.00
2017-09-05T03:38:06.207Z,17.10
2017-09-05T03:40:33.645Z,17.00
2017-09-05T03:43:01.100Z,17.00
2017-09-05T03:45:28.535Z,17.00
2017-09-05T03:47:55.972Z,17.00
2017-09-05T03:50:23.406Z,17.00
2017-09-05T03:52:50.841Z,17.10
2017-09-05T03:55:18.300Z,17.00
2017-09-05T03:57:45.743Z,16.90
2017-09-05T04:00:13.179Z,16.90
2017-09-05T04:02:40.623Z,16.90
2017-09-05T04:05:08.057Z,16.90
2017-09-05T04:07:35.516Z,16.90
2017-09-05T04:10:02.948Z,17.00
2017-09-05T04:12:30.376Z,17.00
2017-09-05T04:14:57.812Z,17.00
2017-09-05T04:17:25.240Z,17.10
2017-09-05T04:19:52.684Z,17.00
2017-09-05T04:22:20.229Z,17.00
2017-09-05T04:24:47.796Z,16.90
2017-09-05T04:27:15.247Z,16.90
2017-09-05T04:29:42.720Z,16.90
2017-09-05T04:32:10.151Z,16.90
2017-09-05T04:34:37.597Z,16.90
2017-09-05T04:37:05.037Z,16.90
2017-09-05T04:39:32.537Z,16.90
2017-09-05T04:41:59.976Z,16.90
2017-09-05T04:44:27.415Z,16.80
2017-09-05T04:46:55.980Z,16.90
2017-09-05T04:49:23.418Z,16.90
2017-09-05T04:51:50.853Z,16.90
2017-09-05T04:54:18.288Z,16.90
2017-09-05T04:56:45.720Z,16.80
2017-09-05T04:59:13.225Z,16.80
2017-09-05T05:01:40.655Z,16.80
2017-09-05T05:04:08.088Z,16.80
2017-09-05T05:06:37.612Z,16.80
2017-09-05T05:09:05.048Z,16.80
2017-09-05T05:11:32.496Z,16.80
2017-09-05T05:13:59.930Z,16.80
2017-09-05T05:16:27.368Z,16.80
2017-09-05T05:18:54.820Z,16.70
2017-09-05T05:21:22.259Z,16.80
2017-09-05T05:23:49.685Z,16.80
2017-09-05T05:26:17.137Z,16.80
2017-09-05T05:28:44.572Z,16.80
2017-09-05T05:31:12.008Z,16.90
2017-09-05T05:33:39.436Z,16.90
2017-09-05T05:36:06.901Z,16.90
2017-09-05T05:38:34.368Z,17.00
2017-09-05T05:41:01.804Z,17.00
2017-09-05T05:43:29.236Z,17.00
2017-09-05T05:45:56.681Z,17.10
2017-09-05T05:48:24.110Z,17.10
2017-09-05T05:50:51.548Z,17.20
2017-09-05T05:53:18.980Z,17.20
2017-09-05T05:55:46.424Z,17.20
2017-09-05T05:58:13.857Z,17.20
2017-09-05T06:00:41.296Z,17.20
2017-09-05T06:03:08.728Z,17.20
2017-09-05T06:05:36.167Z,17.30
2017-09-05T06:08:13.464Z,17.30
2017-09-05T06:10:40.897Z,17.40
2017-09-05T06:13:09.333Z,17.40
2017-09-05T06:15:36.756Z,17.40
2017-09-05T06:18:04.201Z,17.40
2017-09-05T06:20:31.629Z,17.50
2017-09-05T06:22:59.072Z,17.60
2017-09-05T06:25:26.495Z,17.70
2017-09-05T06:27:53.939Z,17.80
2017-09-05T06:30:21.420Z,17.90
2017-09-05T06:32:48.856Z,17.90
2017-09-05T06:35:16.300Z,18.00
2017-09-05T06:37:43.748Z,18.00
2017-09-05T06:40:11.180Z,18.00
2017-09-05T06:42:38.616Z,18.10
2017-09-05T06:45:06.056Z,18.10
2017-09-05T06:47:33.492Z,18.10
2017-09-05T06:50:00.933Z,18.20
2017-09-05T06:52:28.373Z,18.40
2017-09-05T06:54:55.837Z,18.50
2017-09-05T06:57:23.263Z,18.60
2017-09-05T06:59:50.696Z,18.70
2017-09-05T07:02:18.119Z,18.80
2017-09-05T07:04:45.551Z,18.80
2017-09-05T07:07:14.000Z,18.90
2017-09-05T07:09:41.444Z,18.80
2017-09-05T07:12:08.867Z,18.80
2017-09-05T07:14:36.306Z,19.10
2017-09-05T07:17:03.732Z,19.30
2017-09-05T07:19:31.169Z,19.50
2017-09-05T07:21:58.599Z,19.90
2017-09-05T07:24:27.123Z,20.10
2017-09-05T07:26:54.553Z,20.30
2017-09-05T07:29:22.012Z,20.70
2017-09-05T07:31:49.443Z,21.20
2017-09-05T07:34:16.896Z,21.40
2017-09-05T07:36:45.322Z,21.40
2017-09-05T07:39:12.756Z,21.50
2017-09-05T07:41:40.194Z,21.70
2017-09-05T07:44:07.642Z,22.00
2017-09-05T07:46:35.075Z,22.20
2017-09-05T07:49:02.512Z,22.40
2017-09-05T07:51:29.940Z,22.50
2017-09-05T07:53:57.391Z,22.20
2017-09-05T07:56:24.826Z,22.50
2017-09-05T07:58:52.265Z,22.70
2017-09-05T08:01:19.696Z,22.40
2017-09-05T08:03:47.124Z,22.30
2017-09-05T08:06:14.571Z,22.00
2017-09-05T08:08:50.535Z,21.90
2017-09-05T08:11:17.970Z,21.70
2017-09-05T08:13:45.401Z,21.70
2017-09-05T08:16:12.841Z,21.70
2017-09-05T08:18:40.280Z,21.90
2017-09-05T08:21:07.716Z,21.80
2017-09-05T08:23:35.149Z,21.80
2017-09-05T08:26:11.241Z,21.80
2017-09-05T08:28:38.664Z,21.80
2017-09-05T08:31:06.103Z,21.90
2017-09-05T08:33:33.539Z,21.90
2017-09-05T08:36:00.973Z,21.90
2017-09-05T08:38:28.404Z,21.90
2017-09-05T08:40:55.848Z,21.90
2017-09-05T08:43:23.284Z,21.90
2017-09-05T08:45:52.775Z,21.90
2017-09-05T08:48:20.197Z,22.00
2017-09-05T08:50:47.632Z,22.30
2017-09-05T08:53:15.060Z,22.50
2017-09-05T08:55:42.496Z,22.70
2017-09-05T08:58:09.919Z,22.80
2017-09-05T09:00:38.323Z,22.90
2017-09-05T09:03:05.765Z,23.00
2017-09-05T09:05:33.192Z,23.20
2017-09-05T09:08:00.619Z,23.50
2017-09-05T09:10:28.047Z,23.80
2017-09-05T09:12:55.476Z,24.00
2017-09-05T09:15:22.912Z,24.10
2017-09-05T09:17:50.343Z,24.00
2017-09-05T09:20:17.778Z,24.40
2017-09-05T09:22:45.204Z,24.60
2017-09-05T09:25:12.629Z,24.70
2017-09-05T09:27:40.059Z,24.90
2017-09-05T09:30:07.557Z,24.70
2017-09-05T09:32:34.988Z,24.50
2017-09-05T09:35:02.424Z,24.80
2017-09-05T09:37:29.861Z,25.10
2017-09-05T09:39:57.283Z,25.30
2017-09-05T09:42:24.714Z,25.70
2017-09-05T09:44:52.140Z,25.80
2017-09-05T09:47:19.568Z,25.90
2017-09-05T09:49:46.992Z,26.00
2017-09-05T09:52:14.423Z,26.00
2017-09-05T09:54:41.853Z,26.00
2017-09-05T09:57:09.277Z,26.00
2017-09-05T09:59:39.956Z,26.30
2017-09-05T10:02:07.375Z,26.60
2017-09-05T10:04:34.868Z,27.00
2017-09-05T10:07:02.296Z,27.20
2017-09-05T10:09:29.730Z,27.20
2017-09-05T10:11:57.159Z,27.20
2017-09-05T10:14:24.604Z,26.90
2017-09-05T10:16:52.028Z,26.80
2017-09-05T10:19:19.460Z,26.90
2017-09-05T10:21:55.192Z,27.20
2017-09-05T10:24:22.620Z,27.30
2017-09-05T10:26:50.048Z,27.50
2017-09-05T10:29:17.484Z,27.30
2017-09-05T10:31:44.916Z,26.70
2017-09-05T10:34:12.352Z,26.90
2017-09-05T10:36:41.735Z,26.80
2017-09-05T10:39:09.164Z,26.80
2017-09-05T10:41:36.587Z,27.00
2017-09-05T10:44:04.019Z,27.10
2017-09-05T10:46:31.468Z,27.20
2017-09-05T10:48:58.896Z,27.30
2017-09-05T10:51:26.312Z,27.50
2017-09-05T10:53:53.764Z,27.70
2017-09-05T10:56:21.185Z,27.80
2017-09-05T10:58:48.608Z,27.90
2017-09-05T11:01:16.040Z,27.90
2017-09-05T11:03:43.455Z,27.80
2017-09-05T11:06:15.968Z,27.90
2017-09-05T11:08:43.381Z,28.00
2017-09-05T11:11:10.812Z,28.10
2017-09-05T11:13:38.240Z,27.90
2017-09-05T11:16:05.686Z,28.20
2017-09-05T11:18:33.101Z,28.50
2017-09-05T11:21:00.537Z,28.40
2017-09-05T11:23:27.956Z,28.40
2017-09-05T11:25:55.383Z,28.60
2017-09-05T11:28:22.812Z,28.40
2017-09-05T11:30:51.233Z,28.30
2017-09-05T11:33:18.658Z,28.40
2017-09-05T11:35:46.231Z,28.20
2017-09-05T11:38:13.653Z,28.00
2017-09-05T11:40:41.076Z,27.80
2017-09-05T11:43:08.500Z,27.80
2017-09-05T11:45:35.937Z,27.60
2017-09-05T11:48:03.359Z,27.10
2017-09-05T11:50:30.792Z,27.00
2017-09-05T11:52:58.219Z,27.20
2017-09-05T11:55:25.639Z,27.20
2017-09-05T11:57:53.071Z,27.30
2017-09-05T12:00:20.548Z,27.10
2017-09-05T12:02:47.976Z,27.10
2017-09-05T12:05:15.391Z,27.00
2017-09-05T12:07:42.837Z,27.10
2017-09-05T12:10:10.263Z,27.10
2017-09-05T12:12:37.694Z,27.10
2017-09-05T12:15:05.117Z,27.10
2017-09-05T12:17:32.568Z,27.00
2017-09-05T12:20:00.032Z,26.90
2017-09-05T12:22:27.464Z,26.70
2017-09-05T12:24:54.918Z,26.60
2017-09-05T12:27:22.339Z,26.60
2017-09-05T12:29:49.771Z,26.60
2017-09-05T12:32:17.206Z,26.60
2017-09-05T12:34:44.624Z,26.60
2017-09-05T12:37:12.068Z,26.60
2017-09-05T12:39:39.504Z,26.50
2017-09-05T12:42:06.952Z,26.50
2017-09-05T12:44:34.355Z,26.50
2017-09-05T12:47:01.788Z,26.40
2017-09-05T12:49:29.244Z,26.40
2017-09-05T12:51:56.688Z,26.40
2017-09-05T12:54:24.122Z,26.30
2017-09-05T12:56:51.532Z,26.20
2017-09-05T12:59:18.956Z,26.20
2017-09-05T13:01:46.384Z,26.10
2017-09-05T13:04:13.818Z,26.20
2017-09-05T13:06:41.236Z,26.20
2017-09-05T13:09:08.664Z,26.00
2017-09-05T13:11:36.092Z,25.90
2017-09-05T13:14:03.520Z,26.00
2017-09-05T13:16:30.955Z,25.90
2017-09-05T13:18:58.388Z,26.00
2017-09-05T13:21:25.808Z,26.10
2017-09-05T13:23:53.239Z,26.00
2017-09-05T13:26:20.656Z,26.10
2017-09-05T13:28:48.087Z,26.00
2017-09-05T13:31:15.507Z,26.00
2017-09-05T13:33:42.944Z,26.00
2017-09-05T13:36:10.371Z,26.10
2017-09-05T13:38:37.812Z,26.00
2017-09-05T13:41:05.237Z,25.90
2017-09-05T13:43:32.685Z,25.90
2017-09-05T13:46:00.108Z,26.00
2017-09-05T13:48:27.528Z,26.10
2017-09-05T13:50:54.959Z,26.10
2017-09-05T13:53:22.375Z,26.20
2017-09-05T13:55:51.825Z,26.20
2017-09-05T13:58:19.251Z,26.30
2017-09-05T14:00:47.653Z,26.40
2017-09-05T14:03:15.080Z,26.40
2017-09-05T14:05:42.513Z,26.40
2017-09-05T14:08:09.943Z,26.20
2017-09-05T14:10:37.376Z,26.10
2017-09-05T14:13:04.801Z,26.10
2017-09-05T14:15:32.231Z,26.10
2017-09-05T14:17:59.676Z,26.10
2017-09-05T14:20:27.108Z,26.20
2017-09-05T14:22:54.529Z,26.20
2017-09-05T14:25:21.959Z,26.40
2017-09-05T14:27:49.568Z,26.50
2017-09-05T14:30:17.024Z,26.60
2017-09-05T14:32:44.455Z,26.50
2017-09-05T14:35:11.897Z,26.40
2017-09-05T14:37:39.323Z,26.40
2017-09-05T14:40:06.754Z,26.40
2017-09-05T14:42:34.184Z,26.50
2017-09-05T14:45:01.616Z,26.30
2017-09-05T14:47:29.047Z,26.30
2017-09-05T14:49:56.472Z,26.30
2017-09-05T14:52:23.899Z,26.20
2017-09-05T14:54:51.324Z,26.00
2017-09-05T14:57:18.747Z,26.10
2017-09-05T14:59:46.180Z,26.00
2017-09-05T15:02:13.622Z,26.00
2017-09-05T15:04:41.043Z,25.90
2017-09-05T15:07:08.482Z,25.90
2017-09-05T15:09:35.916Z,25.90
2017-09-05T15:12:03.434Z,25.90
2017-09-05T15:14:30.852Z,25.80
2017-09-05T15:16:58.296Z,25.80
2017-09-05T15:19:25.769Z,25.60
2017-09-05T15:21:53.202Z,25.40
2017-09-05T15:24:20.630Z,25.40
2017-09-05T15:26:48.055Z,25.40
2017-09-05T15:29:15.492Z,25.30
2017-09-05T15:31:42.918Z,25.30
2017-09-05T15:34:10.384Z,25.40
2017-09-05T15:36:37.863Z,25.20
2017-09-05T15:39:05.296Z,25.30
2017-09-05T15:41:32.728Z,25.20
2017-09-05T15:44:00.159Z,25.10
2017-09-05T15:46:27.583Z,25.10
2017-09-05T15:48:55.021Z,25.10
2017-09-05T15:51:22.448Z,25.00
2017-09-05T15:53:49.860Z,25.00
2017-09-05T15:56:17.291Z,25.00
2017-09-05T15:58:44.729Z,25.00
2017-09-05T16:01:12.152Z,25.00
2017-09-05T16:03:39.580Z,25.10
2017-09-05T16:06:07.020Z,25.10
2017-09-05T16:08:34.440Z,25.10
2017-09-05T16:11:01.872Z,25.20
2017-09-05T16:13:29.296Z,25.20
2017-09-05T16:15:56.777Z,25.30
2017-09-05T16:18:24.199Z,25.20
2017-09-05T16:20:51.637Z,25.20
2017-09-05T16:23:19.076Z,25.20
2017-09-05T16:25:46.500Z,25.20
2017-09-05T16:28:13.928Z,25.00
2017-09-05T16:30:41.360Z,25.10
2017-09-05T16:33:08.779Z,25.10
2017-09-05T16:35:36.216Z,25.00
2017-09-05T16:38:03.635Z,25.00
2017-09-05T16:40:31.067Z,25.00
2017-09-05T16:42:58.502Z,25.10
2017-09-05T16:45:25.924Z,25.00
2017-09-05T16:47:53.424Z,24.90
2017-09-05T16:50:20.840Z,24.90
2017-09-05T16:52:48.279Z,24.90
2017-09-05T16:55:15.702Z,24.90
2017-09-05T16:57:43.132Z,24.90
2017-09-05T17:00:10.568Z,24.90
2017-09-05T17:02:38.008Z,24.70
2017-09-05T17:05:05.460Z,24.70
2017-09-05T17:07:32.897Z,24.60
2017-09-05T17:10:00.323Z,24.60
2017-09-05T17:12:27.747Z,24.60
2017-09-05T17:14:55.184Z,24.60
2017-09-05T17:17:22.612Z,24.60
2017-09-05T17:19:50.043Z,24.60
2017-09-05T17:22:17.507Z,24.60
2017-09-05T17:24:44.934Z,24.50
2017-09-05T17:27:12.367Z,24.30
2017-09-05T17:29:39.830Z,24.20
2017-09-05T17:32:08.262Z,24.20
2017-09-05T17:34:35.683Z,24.10
2017-09-05T17:37:03.559Z,24.10
2017-09-05T17:39:30.981Z,24.10
2017-09-05T17:41:58.424Z,24.00
2017-09-05T17:44:25.840Z,24.00
2017-09-05T17:46:53.318Z,23.90
2017-09-05T17:49:20.744Z,23.90
2017-09-05T17:51:48.179Z,23.90
2017-09-05T17:54:15.604Z,23.80
2017-09-05T17:56:43.025Z,23.80
2017-09-05T17:59:10.460Z,23.80
2017-09-05T18:01:37.941Z,23.80
2017-09-05T18:04:05.376Z,23.80
2017-09-05T18:06:32.802Z,23.80
2017-09-05T18:09:00.232Z,23.70
2017-09-05T18:11:27.661Z,23.70
2017-09-05T18:13:55.124Z,23.60
2017-09-05T18:16:22.560Z,23.60
2017-09-05T18:18:49.991Z,23.50
2017-09-05T18:21:17.428Z,23.40
2017-09-05T18:23:44.859Z,23.30
2017-09-05T18:26:12.281Z,23.30
2017-09-05T18:28:39.719Z,23.30
2017-09-05T18:31:07.153Z,23.20
2017-09-05T18:33:34.604Z,23.20
2017-09-05T18:36:02.015Z,23.10
2017-09-05T18:38:29.468Z,23.00
2017-09-05T18:40:56.895Z,23.00
2017-09-05T18:43:24.322Z,23.00
2017-09-05T18:45:51.745Z,23.00
2017-09-05T18:48:19.176Z,23.00
2017-09-05T18:50:46.605Z,23.00
2017-09-05T18:53:14.045Z,22.90
2017-09-05T18:55:41.459Z,22.90
2017-09-05T18:58:08.894Z,22.90
2017-09-05T19:00:36.331Z,22.80
2017-09-05T19:03:03.755Z,22.80
2017-09-05T19:05:31.211Z,22.80
2017-09-05T19:07:58.636Z,22.80
2017-09-05T19:10:26.064Z,22.80
2017-09-05T19:12:53.489Z,22.80
2017-09-05T19:15:20.924Z,22.80
2017-09-05T19:17:48.400Z,22.80
2017-09-05T19:20:15.824Z,22.80
2017-09-05T19:22:43.245Z,22.80
2017-09-05T19:25:10.672Z,22.70
2017-09-05T19:27:38.099Z,22.70
2017-09-05T19:30:05.531Z,22.70
2017-09-05T19:32:32.950Z,22.70
2017-09-05T19:35:00.390Z,22.70
2017-09-05T19:37:27.808Z,22.70
2017-09-05T19:39:55.286Z,22.60
2017-09-05T19:42:22.716Z,22.60
2017-09-05T19:44:50.135Z,22.60
2017-09-05T19:47:17.561Z,22.60
2017-09-05T19:49:45.011Z,22.60
2017-09-05T19:52:12.442Z,22.50
2017-09-05T19:54:39.869Z,22.40
2017-09-05T19:57:07.304Z,22.30
2017-09-05T19:59:34.740Z,22.30
2017-09-05T20:02:02.173Z,22.20
2017-09-05T20:04:29.614Z,22.20
2017-09-05T20:06:57.043Z,22.20
2017-09-05T20:09:24.472Z,22.20
2017-09-05T20:11:51.901Z,22.20
2017-09-05T20:14:19.365Z,22.20
2017-09-05T20:16:46.785Z,22.10
2017-09-05T20:19:14.221Z,22.10
2017-09-05T20:21:41.649Z,22.10
2017-09-05T20:24:09.077Z,22.10
2017-09-05T20:26:36.515Z,22.00
2017-09-05T20:29:03.940Z,22.10
2017-09-05T20:31:31.374Z,22.00
2017-09-05T20:33:58.808Z,22.00
2017-09-05T20:36:26.262Z,22.00
2017-09-05T20:38:53.693Z,21.90
2017-09-05T20:41:21.107Z,21.90
2017-09-05T20:43:48.535Z,22.00
2017-09-05T20:46:15.973Z,22.00
2017-09-05T20:48:43.399Z,22.00
2017-09-05T20:51:10.823Z,21.90
2017-09-05T20:53:38.264Z,21.80
2017-09-05T20:56:05.697Z,21.80
2017-09-05T20:58:33.120Z,21.80
2017-09-05T21:01:00.564Z,21.70
2017-09-05T21:03:27.987Z,21.70
2017-09-05T21:05:55.433Z,21.70
2017-09-05T21:08:22.852Z,21.60
2017-09-05T21:10:50.285Z,21.60
2017-09-05T21:13:17.712Z,21.50
2017-09-05T21:15:45.145Z,21.50
2017-09-05T21:18:12.567Z,21.40
2017-09-05T21:20:39.999Z,21.40
2017-09-05T21:23:07.437Z,21.40
2017-09-05T21:25:34.878Z,21.40
2017-09-05T21:28:02.292Z,21.40
2017-09-05T21:30:29.727Z,21.30
2017-09-05T21:32:57.147Z,21.30
2017-09-05T21:35:24.580Z,21.30
2017-09-05T21:37:52.127Z,21.30
2017-09-05T21:40:19.563Z,21.20
2017-09-05T21:42:46.993Z,21.20
2017-09-05T21:45:14.417Z,21.20
2017-09-05T21:47:41.845Z,21.10
2017-09-05T21:50:09.264Z,21.10
2017-09-05T21:52:36.695Z,21.00
2017-09-05T21:55:04.217Z,21.00
2017-09-05T21:57:31.643Z,20.90
2017-09-05T21:59:59.072Z,20.90
2017-09-05T22:02:26.596Z,20.80
2017-09-05T22:04:54.016Z,20.80
2017-09-05T22:07:21.459Z,20.80
2017-09-05T22:09:48.883Z,20.80
2017-09-05T22:12:16.317Z,20.70
2017-09-05T22:17:42.576Z,20.70
2017-09-05T22:20:15.712Z,20.60
2017-09-05T22:22:48.983Z,20.50
2017-09-05T22:25:22.195Z,20.50
2017-09-05T22:27:55.460Z,20.50
2017-09-05T22:30:22.887Z,20.50
2017-09-05T22:32:50.311Z,20.40
2017-09-05T22:35:17.735Z,20.40
2017-09-05T22:37:45.168Z,20.40
2017-09-05T22:40:12.587Z,20.30
2017-09-05T22:42:40.016Z,20.30
2017-09-05T22:45:07.440Z,20.30
2017-09-05T22:47:34.888Z,20.30
2017-09-05T22:50:02.312Z,20.20
2017-09-05T22:52:29.750Z,20.10
2017-09-05T22:54:57.164Z,20.10
2017-09-05T22:57:24.595Z,20.10
2017-09-05T22:59:52.033Z,19.90
2017-09-05T23:02:19.465Z,19.90
2017-09-05T23:04:46.907Z,19.80
2017-09-05T23:07:14.345Z,19.70
2017-09-05T23:09:41.772Z,19.70
2017-09-05T23:12:09.196Z,19.60
2017-09-05T23:14:36.620Z,19.60
2017-09-05T23:17:04.043Z,19.60
2017-09-05T23:19:31.475Z,19.60
2017-09-05T23:21:58.900Z,19.60
2017-09-05T23:24:26.319Z,19.60
2017-09-05T23:26:53.768Z,19.50
2017-09-05T23:29:21.191Z,19.40
2017-09-05T23:31:48.616Z,19.40
2017-09-05T23:34:16.035Z,19.40
2017-09-05T23:36:43.470Z,19.40
2017-09-05T23:39:10.897Z,19.40
2017-09-05T23:41:38.328Z,19.50
2017-09-05T23:44:05.756Z,19.50
2017-09-05T23:46:33.340Z,19.50
2017-09-05T23:49:00.772Z,19.60
2017-09-05T23:51:28.204Z,19.70
2017-09-05T23:53:55.627Z,19.70
2017-09-05T23:56:23.083Z,19.70
2017-09-05T23:58:50.521Z,19.80
